sensor_id;sensor_type;location;lat;lon;timestamp;pressure;altitude;pressure_sealevel;temperature;humidity
64967;BME280;51710;38.732;-121.358;2022-12-18T00:01:23;101345.78;;;12.27;58.73
64967;BME280;51710;38.732;-121.358;2022-12-18T00:03:52;101342.88;;;12.21;58.60
64967;BME280;51710;38.732;-121.358;2022-12-18T00:06:19;101347.16;;;12.14;59.19
64967;BME280;51710;38.732;-121.358;2022-12-18T00:08:46;101346.78;;;12.09;59.03
64967;BME280;51710;38.732;-121.358;2022-12-18T00:11:16;101346.53;;;12.02;59.40
64967;BME280;51710;38.732;-121.358;2022-12-18T00:13:42;101340.28;;;11.94;59.62
64967;BME280;51710;38.732;-121.358;2022-12-18T00:16:11;101338.19;;;11.88;59.43
64967;BME280;51710;38.732;-121.358;2022-12-18T00:18:38;101335.16;;;11.83;60.23
64967;BME280;51710;38.732;-121.358;2022-12-18T00:21:06;101336.44;;;11.79;60.01
64967;BME280;51710;38.732;-121.358;2022-12-18T00:23:34;101336.75;;;11.76;60.34
64967;BME280;51710;38.732;-121.358;2022-12-18T00:26:02;101341.69;;;11.71;60.28
64967;BME280;51710;38.732;-121.358;2022-12-18T00:28:28;101340.44;;;11.65;60.57
64967;BME280;51710;38.732;-121.358;2022-12-18T00:31:05;101340.47;;;11.56;60.51
64967;BME280;51710;38.732;-121.358;2022-12-18T00:33:35;101343.34;;;11.45;61.08
64967;BME280;51710;38.732;-121.358;2022-12-18T00:36:06;101335.50;;;11.33;60.58
64967;BME280;51710;38.732;-121.358;2022-12-18T00:38:33;101338.09;;;11.25;60.62
64967;BME280;51710;38.732;-121.358;2022-12-18T00:41:00;101345.84;;;11.19;61.71
64967;BME280;51710;38.732;-121.358;2022-12-18T00:43:27;101334.78;;;11.14;62.34
64967;BME280;51710;38.732;-121.358;2022-12-18T00:45:53;101341.22;;;11.11;61.87
64967;BME280;51710;38.732;-121.358;2022-12-18T00:48:20;101331.13;;;11.05;61.73
64967;BME280;51710;38.732;-121.358;2022-12-18T00:50:48;101337.06;;;10.99;62.04
64967;BME280;51710;38.732;-121.358;2022-12-18T00:53:15;101325.28;;;10.92;61.79
64967;BME280;51710;38.732;-121.358;2022-12-18T00:55:42;101333.19;;;10.84;62.11
64967;BME280;51710;38.732;-121.358;2022-12-18T00:58:09;101333.75;;;10.78;61.75
64967;BME280;51710;38.732;-121.358;2022-12-18T01:00:36;101336.00;;;10.73;62.29
64967;BME280;51710;38.732;-121.358;2022-12-18T01:03:04;101333.75;;;10.69;62.10
64967;BME280;51710;38.732;-121.358;2022-12-18T01:05:30;101335.19;;;10.63;62.65
64967;BME280;51710;38.732;-121.358;2022-12-18T01:07:57;101334.31;;;10.53;62.76
64967;BME280;51710;38.732;-121.358;2022-12-18T01:10:24;101330.84;;;10.43;62.38
64967;BME280;51710;38.732;-121.358;2022-12-18T01:12:51;101330.72;;;10.35;62.64
64967;BME280;51710;38.732;-121.358;2022-12-18T01:15:18;101324.97;;;10.30;62.76
64967;BME280;51710;38.732;-121.358;2022-12-18T01:17:45;101330.16;;;10.22;62.78
64967;BME280;51710;38.732;-121.358;2022-12-18T01:20:12;101324.69;;;10.14;63.28
64967;BME280;51710;38.732;-121.358;2022-12-18T01:22:39;101319.78;;;10.09;63.66
64967;BME280;51710;38.732;-121.358;2022-12-18T01:25:05;101322.13;;;10.03;63.89
64967;BME280;51710;38.732;-121.358;2022-12-18T01:27:33;101320.03;;;9.97;64.19
64967;BME280;51710;38.732;-121.358;2022-12-18T01:30:00;101318.91;;;9.90;63.90
64967;BME280;51710;38.732;-121.358;2022-12-18T01:32:28;101313.84;;;9.77;64.33
64967;BME280;51710;38.732;-121.358;2022-12-18T01:34:55;101314.81;;;9.67;64.78
64967;BME280;51710;38.732;-121.358;2022-12-18T01:37:21;101323.88;;;9.55;64.90
64967;BME280;51710;38.732;-121.358;2022-12-18T01:39:47;101317.69;;;9.45;64.98
64967;BME280;51710;38.732;-121.358;2022-12-18T01:42:16;101312.31;;;9.35;65.41
64967;BME280;51710;38.732;-121.358;2022-12-18T01:45:05;101314.69;;;9.29;65.85
64967;BME280;51710;38.732;-121.358;2022-12-18T01:47:39;101315.22;;;9.23;65.92
64967;BME280;51710;38.732;-121.358;2022-12-18T01:50:15;101323.75;;;9.17;65.98
64967;BME280;51710;38.732;-121.358;2022-12-18T01:52:56;101318.22;;;9.08;66.43
64967;BME280;51710;38.732;-121.358;2022-12-18T01:55:26;101314.19;;;9.04;66.57
64967;BME280;51710;38.732;-121.358;2022-12-18T01:57:57;101316.63;;;8.96;66.30
64967;BME280;51710;38.732;-121.358;2022-12-18T02:00:26;101318.41;;;8.86;66.86
64967;BME280;51710;38.732;-121.358;2022-12-18T02:02:54;101306.75;;;8.78;66.79
64967;BME280;51710;38.732;-121.358;2022-12-18T02:10:41;101307.09;;;8.43;67.14
64967;BME280;51710;38.732;-121.358;2022-12-18T02:18:32;101299.28;;;8.10;67.97
64967;BME280;51710;38.732;-121.358;2022-12-18T02:21:12;101303.75;;;7.98;67.97
64967;BME280;51710;38.732;-121.358;2022-12-18T02:24:03;101299.13;;;7.91;67.86
64967;BME280;51710;38.732;-121.358;2022-12-18T02:26:59;101299.47;;;7.86;68.18
64967;BME280;51710;38.732;-121.358;2022-12-18T02:32:15;101315.50;;;7.85;69.15
64967;BME280;51710;38.732;-121.358;2022-12-18T02:34:44;101305.88;;;7.84;68.65
64967;BME280;51710;38.732;-121.358;2022-12-18T02:37:15;101303.50;;;7.81;69.20
64967;BME280;51710;38.732;-121.358;2022-12-18T02:39:43;101308.19;;;7.77;69.43
64967;BME280;51710;38.732;-121.358;2022-12-18T02:42:12;101313.13;;;7.71;69.11
64967;BME280;51710;38.732;-121.358;2022-12-18T02:44:50;101310.03;;;7.66;69.59
64967;BME280;51710;38.732;-121.358;2022-12-18T02:47:31;101311.47;;;7.59;69.29
64967;BME280;51710;38.732;-121.358;2022-12-18T02:55:42;101312.25;;;7.28;69.53
64967;BME280;51710;38.732;-121.358;2022-12-18T02:58:26;101312.75;;;7.22;70.16
64967;BME280;51710;38.732;-121.358;2022-12-18T03:01:11;101314.06;;;7.16;70.37
64967;BME280;51710;38.732;-121.358;2022-12-18T03:03:44;101307.69;;;7.08;70.37
64967;BME280;51710;38.732;-121.358;2022-12-18T03:06:35;101312.00;;;6.98;70.75
64967;BME280;51710;38.732;-121.358;2022-12-18T03:09:07;101311.91;;;6.88;70.52
64967;BME280;51710;38.732;-121.358;2022-12-18T03:11:39;101316.84;;;6.81;70.72
64967;BME280;51710;38.732;-121.358;2022-12-18T03:14:26;101317.03;;;6.78;70.83
64967;BME280;51710;38.732;-121.358;2022-12-18T03:16:58;101317.28;;;6.75;70.60
64967;BME280;51710;38.732;-121.358;2022-12-18T03:19:28;101318.34;;;6.73;71.28
64967;BME280;51710;38.732;-121.358;2022-12-18T03:21:57;101309.13;;;6.67;71.31
64967;BME280;51710;38.732;-121.358;2022-12-18T03:24:26;101318.25;;;6.63;71.41
64967;BME280;51710;38.732;-121.358;2022-12-18T03:26:59;101314.13;;;6.59;71.52
64967;BME280;51710;38.732;-121.358;2022-12-18T03:29:45;101313.41;;;6.57;71.15
64967;BME280;51710;38.732;-121.358;2022-12-18T03:32:23;101313.63;;;6.54;71.25
64967;BME280;51710;38.732;-121.358;2022-12-18T03:34:53;101318.31;;;6.51;71.71
64967;BME280;51710;38.732;-121.358;2022-12-18T03:37:21;101311.69;;;6.45;71.27
64967;BME280;51710;38.732;-121.358;2022-12-18T03:39:47;101308.06;;;6.35;71.62
64967;BME280;51710;38.732;-121.358;2022-12-18T03:42:20;101312.59;;;6.22;71.99
64967;BME280;51710;38.732;-121.358;2022-12-18T03:50:36;101313.00;;;6.05;71.75
64967;BME280;51710;38.732;-121.358;2022-12-18T03:53:42;101315.88;;;6.02;72.01
64967;BME280;51710;38.732;-121.358;2022-12-18T03:56:12;101311.56;;;6.01;71.97
64967;BME280;51710;38.732;-121.358;2022-12-18T03:58:41;101320.66;;;5.97;72.30
64967;BME280;51710;38.732;-121.358;2022-12-18T04:01:12;101317.41;;;5.94;72.62
64967;BME280;51710;38.732;-121.358;2022-12-18T04:03:42;101327.84;;;5.95;72.34
64967;BME280;51710;38.732;-121.358;2022-12-18T04:06:11;101325.22;;;5.95;72.85
64967;BME280;51710;38.732;-121.358;2022-12-18T04:08:38;101316.53;;;5.93;72.49
64967;BME280;51710;38.732;-121.358;2022-12-18T04:11:05;101315.09;;;5.89;72.56
64967;BME280;51710;38.732;-121.358;2022-12-18T04:13:37;101320.59;;;5.86;72.70
64967;BME280;51710;38.732;-121.358;2022-12-18T04:16:04;101310.47;;;5.80;73.06
64967;BME280;51710;38.732;-121.358;2022-12-18T04:18:31;101311.75;;;5.74;72.96
64967;BME280;51710;38.732;-121.358;2022-12-18T04:20:57;101313.88;;;5.69;73.32
64967;BME280;51710;38.732;-121.358;2022-12-18T04:23:23;101320.44;;;5.64;73.20
64967;BME280;51710;38.732;-121.358;2022-12-18T04:25:50;101323.31;;;5.61;73.44
64967;BME280;51710;38.732;-121.358;2022-12-18T04:28:16;101320.88;;;5.58;73.61
64967;BME280;51710;38.732;-121.358;2022-12-18T04:30:43;101319.22;;;5.57;73.60
64967;BME280;51710;38.732;-121.358;2022-12-18T04:33:13;101324.72;;;5.54;73.33
64967;BME280;51710;38.732;-121.358;2022-12-18T04:35:40;101313.72;;;5.47;73.15
64967;BME280;51710;38.732;-121.358;2022-12-18T04:38:08;101318.19;;;5.47;73.34
64967;BME280;51710;38.732;-121.358;2022-12-18T04:40:36;101317.44;;;5.45;73.62
64967;BME280;51710;38.732;-121.358;2022-12-18T04:43:03;101318.63;;;5.41;73.69
64967;BME280;51710;38.732;-121.358;2022-12-18T04:45:31;101318.09;;;5.36;73.95
64967;BME280;51710;38.732;-121.358;2022-12-18T04:47:58;101322.13;;;5.29;73.78
64967;BME280;51710;38.732;-121.358;2022-12-18T04:50:25;101328.72;;;5.11;74.01
64967;BME280;51710;38.732;-121.358;2022-12-18T04:52:51;101325.25;;;4.98;74.06
64967;BME280;51710;38.732;-121.358;2022-12-18T04:55:17;101326.50;;;4.92;74.34
64967;BME280;51710;38.732;-121.358;2022-12-18T04:57:44;101322.09;;;4.93;74.48
64967;BME280;51710;38.732;-121.358;2022-12-18T05:00:10;101321.22;;;4.92;74.94
64967;BME280;51710;38.732;-121.358;2022-12-18T05:02:37;101325.88;;;4.89;74.68
64967;BME280;51710;38.732;-121.358;2022-12-18T05:05:03;101321.03;;;4.83;74.66
64967;BME280;51710;38.732;-121.358;2022-12-18T05:07:29;101330.97;;;4.79;74.72
64967;BME280;51710;38.732;-121.358;2022-12-18T05:09:56;101323.16;;;4.78;74.98
64967;BME280;51710;38.732;-121.358;2022-12-18T05:12:22;101328.44;;;4.78;75.13
64967;BME280;51710;38.732;-121.358;2022-12-18T05:14:48;101317.88;;;4.78;75.36
64967;BME280;51710;38.732;-121.358;2022-12-18T05:17:14;101326.72;;;4.77;75.30
64967;BME280;51710;38.732;-121.358;2022-12-18T05:19:41;101316.38;;;4.74;75.41
64967;BME280;51710;38.732;-121.358;2022-12-18T05:22:07;101321.44;;;4.77;75.51
64967;BME280;51710;38.732;-121.358;2022-12-18T05:24:33;101317.88;;;4.78;75.65
64967;BME280;51710;38.732;-121.358;2022-12-18T05:27:00;101315.31;;;4.76;75.47
64967;BME280;51710;38.732;-121.358;2022-12-18T05:29:26;101312.03;;;4.73;75.34
64967;BME280;51710;38.732;-121.358;2022-12-18T05:31:52;101312.25;;;4.70;75.33
64967;BME280;51710;38.732;-121.358;2022-12-18T05:34:19;101308.16;;;4.66;75.47
64967;BME280;51710;38.732;-121.358;2022-12-18T05:36:45;101304.78;;;4.64;75.64
64967;BME280;51710;38.732;-121.358;2022-12-18T05:39:11;101306.69;;;4.62;75.52
64967;BME280;51710;38.732;-121.358;2022-12-18T05:41:37;101307.94;;;4.56;75.77
64967;BME280;51710;38.732;-121.358;2022-12-18T05:44:07;101312.97;;;4.46;75.82
64967;BME280;51710;38.732;-121.358;2022-12-18T05:46:36;101307.94;;;4.43;76.15
64967;BME280;51710;38.732;-121.358;2022-12-18T05:49:02;101308.88;;;4.42;76.02
64967;BME280;51710;38.732;-121.358;2022-12-18T05:51:28;101312.56;;;4.40;76.16
64967;BME280;51710;38.732;-121.358;2022-12-18T05:53:55;101311.81;;;4.38;76.21
64967;BME280;51710;38.732;-121.358;2022-12-18T05:56:22;101312.56;;;4.40;76.70
64967;BME280;51710;38.732;-121.358;2022-12-18T05:58:52;101315.09;;;4.41;76.42
64967;BME280;51710;38.732;-121.358;2022-12-18T06:01:22;101306.88;;;4.46;76.89
64967;BME280;51710;38.732;-121.358;2022-12-18T06:03:49;101307.31;;;4.52;76.78
64967;BME280;51710;38.732;-121.358;2022-12-18T06:06:26;101320.81;;;4.60;77.01
64967;BME280;51710;38.732;-121.358;2022-12-18T06:08:54;101320.06;;;4.71;77.17
64967;BME280;51710;38.732;-121.358;2022-12-18T06:11:24;101312.59;;;4.78;77.12
64967;BME280;51710;38.732;-121.358;2022-12-18T06:13:54;101309.84;;;4.79;77.06
64967;BME280;51710;38.732;-121.358;2022-12-18T06:16:21;101318.59;;;4.80;77.11
64967;BME280;51710;38.732;-121.358;2022-12-18T06:18:47;101310.50;;;4.83;77.33
64967;BME280;51710;38.732;-121.358;2022-12-18T06:21:13;101318.06;;;4.87;77.37
64967;BME280;51710;38.732;-121.358;2022-12-18T06:23:40;101314.06;;;4.94;77.48
64967;BME280;51710;38.732;-121.358;2022-12-18T06:26:08;101313.41;;;5.03;77.75
64967;BME280;51710;38.732;-121.358;2022-12-18T06:28:35;101317.22;;;5.12;77.83
64967;BME280;51710;38.732;-121.358;2022-12-18T06:31:03;101311.47;;;5.18;77.65
64967;BME280;51710;38.732;-121.358;2022-12-18T06:33:29;101307.38;;;5.26;77.53
64967;BME280;51710;38.732;-121.358;2022-12-18T06:36:12;101314.94;;;5.31;77.58
64967;BME280;51710;38.732;-121.358;2022-12-18T06:38:41;101316.44;;;5.35;77.68
64967;BME280;51710;38.732;-121.358;2022-12-18T06:41:08;101317.16;;;5.37;77.38
64967;BME280;51710;38.732;-121.358;2022-12-18T06:43:35;101310.81;;;5.39;77.24
64967;BME280;51710;38.732;-121.358;2022-12-18T06:46:03;101315.47;;;5.36;77.10
64967;BME280;51710;38.732;-121.358;2022-12-18T06:48:30;101308.53;;;5.22;76.87
64967;BME280;51710;38.732;-121.358;2022-12-18T06:50:56;101314.34;;;5.02;76.30
64967;BME280;51710;38.732;-121.358;2022-12-18T06:53:23;101309.63;;;4.82;76.33
64967;BME280;51710;38.732;-121.358;2022-12-18T06:55:49;101315.34;;;4.64;76.68
64967;BME280;51710;38.732;-121.358;2022-12-18T06:58:15;101315.72;;;4.45;76.61
64967;BME280;51710;38.732;-121.358;2022-12-18T07:00:41;101311.06;;;4.36;77.08
64967;BME280;51710;38.732;-121.358;2022-12-18T07:03:08;101315.53;;;4.35;77.60
64967;BME280;51710;38.732;-121.358;2022-12-18T07:05:34;101317.63;;;4.30;77.46
64967;BME280;51710;38.732;-121.358;2022-12-18T07:08:05;101311.06;;;4.23;77.32
64967;BME280;51710;38.732;-121.358;2022-12-18T07:10:32;101322.00;;;4.17;77.06
64967;BME280;51710;38.732;-121.358;2022-12-18T07:12:58;101316.09;;;4.14;77.41
64967;BME280;51710;38.732;-121.358;2022-12-18T07:15:24;101325.78;;;4.13;77.71
64967;BME280;51710;38.732;-121.358;2022-12-18T07:17:50;101325.59;;;4.16;78.07
64967;BME280;51710;38.732;-121.358;2022-12-18T07:20:17;101323.06;;;4.15;77.50
64967;BME280;51710;38.732;-121.358;2022-12-18T07:22:43;101330.22;;;4.13;77.85
64967;BME280;51710;38.732;-121.358;2022-12-18T07:25:09;101323.47;;;4.09;78.10
64967;BME280;51710;38.732;-121.358;2022-12-18T07:27:35;101320.94;;;4.07;78.14
64967;BME280;51710;38.732;-121.358;2022-12-18T07:30:02;101330.50;;;4.08;78.02
64967;BME280;51710;38.732;-121.358;2022-12-18T07:32:28;101334.00;;;4.09;78.38
64967;BME280;51710;38.732;-121.358;2022-12-18T07:34:56;101336.84;;;4.06;78.15
64967;BME280;51710;38.732;-121.358;2022-12-18T07:37:22;101328.47;;;3.99;78.41
64967;BME280;51710;38.732;-121.358;2022-12-18T07:39:48;101335.84;;;3.94;78.17
64967;BME280;51710;38.732;-121.358;2022-12-18T07:42:14;101342.06;;;3.93;78.47
64967;BME280;51710;38.732;-121.358;2022-12-18T07:44:56;101340.78;;;3.86;78.22
64967;BME280;51710;38.732;-121.358;2022-12-18T07:47:23;101336.75;;;3.81;78.47
64967;BME280;51710;38.732;-121.358;2022-12-18T07:49:49;101334.41;;;3.76;78.36
64967;BME280;51710;38.732;-121.358;2022-12-18T07:52:15;101330.38;;;3.71;78.27
64967;BME280;51710;38.732;-121.358;2022-12-18T07:54:42;101334.25;;;3.65;78.11
64967;BME280;51710;38.732;-121.358;2022-12-18T07:57:08;101337.84;;;3.64;77.96
64967;BME280;51710;38.732;-121.358;2022-12-18T07:59:35;101334.47;;;3.62;77.75
64967;BME280;51710;38.732;-121.358;2022-12-18T08:02:01;101334.84;;;3.56;77.94
64967;BME280;51710;38.732;-121.358;2022-12-18T08:04:27;101333.53;;;3.49;77.95
64967;BME280;51710;38.732;-121.358;2022-12-18T08:06:54;101331.00;;;3.47;78.22
64967;BME280;51710;38.732;-121.358;2022-12-18T08:09:20;101330.44;;;3.42;78.13
64967;BME280;51710;38.732;-121.358;2022-12-18T08:11:46;101325.41;;;3.39;78.58
64967;BME280;51710;38.732;-121.358;2022-12-18T08:14:12;101325.28;;;3.41;78.48
64967;BME280;51710;38.732;-121.358;2022-12-18T08:16:40;101325.41;;;3.39;78.39
64967;BME280;51710;38.732;-121.358;2022-12-18T08:19:06;101330.81;;;3.36;78.29
64967;BME280;51710;38.732;-121.358;2022-12-18T08:21:32;101318.53;;;3.37;78.11
64967;BME280;51710;38.732;-121.358;2022-12-18T08:24:00;101317.66;;;3.36;78.14
64967;BME280;51710;38.732;-121.358;2022-12-18T08:26:29;101321.34;;;3.34;78.50
64967;BME280;51710;38.732;-121.358;2022-12-18T08:28:56;101325.00;;;3.31;78.56
64967;BME280;51710;38.732;-121.358;2022-12-18T08:31:23;101322.47;;;3.30;78.49
64967;BME280;51710;38.732;-121.358;2022-12-18T08:33:52;101313.19;;;3.24;78.47
64967;BME280;51710;38.732;-121.358;2022-12-18T08:36:21;101310.84;;;3.20;78.41
64967;BME280;51710;38.732;-121.358;2022-12-18T08:38:48;101308.41;;;3.17;78.42
64967;BME280;51710;38.732;-121.358;2022-12-18T08:41:16;101310.19;;;3.16;78.69
64967;BME280;51710;38.732;-121.358;2022-12-18T08:43:42;101306.53;;;3.19;78.68
64967;BME280;51710;38.732;-121.358;2022-12-18T08:46:32;101312.72;;;3.18;78.40
64967;BME280;51710;38.732;-121.358;2022-12-18T08:49:01;101302.41;;;3.15;78.44
64967;BME280;51710;38.732;-121.358;2022-12-18T08:51:27;101303.25;;;3.15;78.71
64967;BME280;51710;38.732;-121.358;2022-12-18T08:53:53;101299.78;;;3.15;78.88
64967;BME280;51710;38.732;-121.358;2022-12-18T08:56:20;101299.03;;;3.13;78.57
64967;BME280;51710;38.732;-121.358;2022-12-18T08:58:46;101297.13;;;3.15;79.07
64967;BME280;51710;38.732;-121.358;2022-12-18T09:01:13;101297.69;;;3.20;78.73
64967;BME280;51710;38.732;-121.358;2022-12-18T09:03:39;101297.31;;;3.26;79.48
64967;BME280;51710;38.732;-121.358;2022-12-18T09:06:06;101295.13;;;3.32;78.97
64967;BME280;51710;38.732;-121.358;2022-12-18T09:08:32;101301.06;;;3.36;79.02
64967;BME280;51710;38.732;-121.358;2022-12-18T09:10:59;101307.78;;;3.40;79.01
64967;BME280;51710;38.732;-121.358;2022-12-18T09:13:25;101295.94;;;3.47;79.49
64967;BME280;51710;38.732;-121.358;2022-12-18T09:15:53;101297.81;;;3.59;79.89
64967;BME280;51710;38.732;-121.358;2022-12-18T09:18:22;101301.31;;;3.72;79.84
64967;BME280;51710;38.732;-121.358;2022-12-18T09:20:49;101295.34;;;3.83;79.88
64967;BME280;51710;38.732;-121.358;2022-12-18T09:23:19;101298.53;;;3.88;79.62
64967;BME280;51710;38.732;-121.358;2022-12-18T09:25:45;101290.72;;;3.86;79.47
64967;BME280;51710;38.732;-121.358;2022-12-18T09:28:14;101295.34;;;3.83;79.63
64967;BME280;51710;38.732;-121.358;2022-12-18T09:30:43;101295.25;;;3.84;79.88
64967;BME280;51710;38.732;-121.358;2022-12-18T09:33:10;101298.84;;;3.83;79.87
64967;BME280;51710;38.732;-121.358;2022-12-18T09:35:37;101290.94;;;3.83;79.94
64967;BME280;51710;38.732;-121.358;2022-12-18T09:38:04;101296.09;;;3.85;80.09
64967;BME280;51710;38.732;-121.358;2022-12-18T09:40:36;101302.94;;;3.87;80.03
64967;BME280;51710;38.732;-121.358;2022-12-18T09:43:05;101316.88;;;3.89;80.16
64967;BME280;51710;38.732;-121.358;2022-12-18T09:45:44;101311.81;;;3.86;79.62
64967;BME280;51710;38.732;-121.358;2022-12-18T09:48:40;101317.81;;;3.88;79.87
64967;BME280;51710;38.732;-121.358;2022-12-18T09:51:15;101314.97;;;3.91;79.82
64967;BME280;51710;38.732;-121.358;2022-12-18T09:54:12;101328.91;;;3.93;79.77
64967;BME280;51710;38.732;-121.358;2022-12-18T09:56:40;101319.84;;;3.97;80.03
64967;BME280;51710;38.732;-121.358;2022-12-18T09:59:16;101335.56;;;3.99;80.04
64967;BME280;51710;38.732;-121.358;2022-12-18T10:01:44;101332.06;;;3.98;80.16
64967;BME280;51710;38.732;-121.358;2022-12-18T10:04:11;101336.38;;;3.99;80.10
64967;BME280;51710;38.732;-121.358;2022-12-18T10:09:32;101337.66;;;4.06;79.98
64967;BME280;51710;38.732;-121.358;2022-12-18T10:14:55;101338.97;;;4.13;79.83
64967;BME280;51710;38.732;-121.358;2022-12-18T10:23:12;101355.88;;;3.97;79.62
64967;BME280;51710;38.732;-121.358;2022-12-18T10:26:07;101354.59;;;3.90;79.88
64967;BME280;51710;38.732;-121.358;2022-12-18T10:28:36;101348.88;;;3.83;79.57
64967;BME280;51710;38.732;-121.358;2022-12-18T10:31:23;101344.84;;;3.78;79.72
64967;BME280;51710;38.732;-121.358;2022-12-18T10:33:50;101344.31;;;3.73;79.48
64967;BME280;51710;38.732;-121.358;2022-12-18T10:36:17;101337.84;;;3.64;79.41
64967;BME280;51710;38.732;-121.358;2022-12-18T10:38:43;101347.44;;;3.51;79.24
64967;BME280;51710;38.732;-121.358;2022-12-18T10:43:47;101348.69;;;3.17;78.99
64967;BME280;51710;38.732;-121.358;2022-12-18T10:46:19;101346.72;;;3.07;79.06
64967;BME280;51710;38.732;-121.358;2022-12-18T10:48:56;101355.13;;;2.99;79.49
64967;BME280;51710;38.732;-121.358;2022-12-18T10:51:26;101350.88;;;2.97;79.71
64967;BME280;51710;38.732;-121.358;2022-12-18T10:54:05;101351.25;;;2.91;79.21
64967;BME280;51710;38.732;-121.358;2022-12-18T10:56:34;101357.75;;;2.85;79.63
64967;BME280;51710;38.732;-121.358;2022-12-18T10:59:07;101348.22;;;2.83;79.35
64967;BME280;51710;38.732;-121.358;2022-12-18T11:01:54;101352.66;;;2.82;79.54
64967;BME280;51710;38.732;-121.358;2022-12-18T11:04:26;101364.22;;;2.80;79.41
64967;BME280;51710;38.732;-121.358;2022-12-18T11:06:57;101371.53;;;2.75;79.87
64967;BME280;51710;38.732;-121.358;2022-12-18T11:09:26;101374.16;;;2.75;80.08
64967;BME280;51710;38.732;-121.358;2022-12-18T11:11:56;101376.59;;;2.78;79.87
64967;BME280;51710;38.732;-121.358;2022-12-18T11:14:30;101377.63;;;2.75;79.41
64967;BME280;51710;38.732;-121.358;2022-12-18T11:16:59;101369.91;;;2.72;79.80
64967;BME280;51710;38.732;-121.358;2022-12-18T11:19:39;101365.69;;;2.70;80.07
64967;BME280;51710;38.732;-121.358;2022-12-18T11:24:59;101363.06;;;2.70;79.92
64967;BME280;51710;38.732;-121.358;2022-12-18T11:27:27;101372.06;;;2.66;79.61
64967;BME280;51710;38.732;-121.358;2022-12-18T11:30:13;101361.94;;;2.60;79.17
64967;BME280;51710;38.732;-121.358;2022-12-18T11:32:58;101356.69;;;2.60;79.26
64967;BME280;51710;38.732;-121.358;2022-12-18T11:38:24;101356.69;;;2.60;79.72
64967;BME280;51710;38.732;-121.358;2022-12-18T11:44:06;101357.06;;;2.68;80.16
64967;BME280;51710;38.732;-121.358;2022-12-18T11:47:01;101352.00;;;2.79;80.27
64967;BME280;51710;38.732;-121.358;2022-12-18T11:49:32;101357.63;;;2.87;80.23
64967;BME280;51710;38.732;-121.358;2022-12-18T11:54:32;101344.50;;;2.87;79.94
64967;BME280;51710;38.732;-121.358;2022-12-18T11:57:18;101338.28;;;2.88;79.78
64967;BME280;51710;38.732;-121.358;2022-12-18T12:19:43;101350.59;;;2.29;79.56
64967;BME280;51710;38.732;-121.358;2022-12-18T12:25:30;101360.00;;;2.34;80.13
64967;BME280;51710;38.732;-121.358;2022-12-18T12:28:30;101356.72;;;2.44;80.02
64967;BME280;51710;38.732;-121.358;2022-12-18T12:34:19;101363.63;;;2.61;80.18
64967;BME280;51710;38.732;-121.358;2022-12-18T12:37:08;101367.56;;;2.68;80.70
64967;BME280;51710;38.732;-121.358;2022-12-18T12:39:40;101362.13;;;2.71;80.42
64967;BME280;51710;38.732;-121.358;2022-12-18T12:42:18;101369.00;;;2.73;80.09
64967;BME280;51710;38.732;-121.358;2022-12-18T12:45:06;101366.28;;;2.75;79.85
64967;BME280;51710;38.732;-121.358;2022-12-18T12:47:42;101361.19;;;2.72;80.00
64967;BME280;51710;38.732;-121.358;2022-12-18T12:50:17;101376.88;;;2.73;80.72
64967;BME280;51710;38.732;-121.358;2022-12-18T12:52:55;101370.47;;;2.77;80.40
64967;BME280;51710;38.732;-121.358;2022-12-18T12:55:28;101372.00;;;2.81;80.25
64967;BME280;51710;38.732;-121.358;2022-12-18T13:00:50;101386.91;;;2.81;80.07
64967;BME280;51710;38.732;-121.358;2022-12-18T13:08:55;101375.47;;;2.82;80.69
64967;BME280;51710;38.732;-121.358;2022-12-18T13:14:30;101378.56;;;2.74;80.48
64967;BME280;51710;38.732;-121.358;2022-12-18T13:22:40;101379.91;;;2.52;80.12
64967;BME280;51710;38.732;-121.358;2022-12-18T13:25:30;101376.38;;;2.53;80.20
64967;BME280;51710;38.732;-121.358;2022-12-18T13:28:02;101388.22;;;2.60;81.09
64967;BME280;51710;38.732;-121.358;2022-12-18T13:38:21;101384.63;;;2.61;80.36
64967;BME280;51710;38.732;-121.358;2022-12-18T13:43:31;101382.00;;;2.61;80.63
64967;BME280;51710;38.732;-121.358;2022-12-18T13:48:37;101384.44;;;2.64;80.51
64967;BME280;51710;38.732;-121.358;2022-12-18T13:51:09;101379.19;;;2.64;80.87
64967;BME280;51710;38.732;-121.358;2022-12-18T13:53:43;101388.59;;;2.68;81.29
64967;BME280;51710;38.732;-121.358;2022-12-18T13:56:16;101387.50;;;2.72;80.89
64967;BME280;51710;38.732;-121.358;2022-12-18T13:58:42;101388.06;;;2.77;81.19
64967;BME280;51710;38.732;-121.358;2022-12-18T14:01:35;101381.59;;;2.82;80.92
64967;BME280;51710;38.732;-121.358;2022-12-18T14:04:23;101389.09;;;2.88;81.10
64967;BME280;51710;38.732;-121.358;2022-12-18T14:06:54;101386.38;;;2.90;80.55
64967;BME280;51710;38.732;-121.358;2022-12-18T14:09:28;101390.88;;;2.88;80.35
64967;BME280;51710;38.732;-121.358;2022-12-18T14:11:56;101389.38;;;2.84;80.88
64967;BME280;51710;38.732;-121.358;2022-12-18T14:14:45;101391.25;;;2.82;80.41
64967;BME280;51710;38.732;-121.358;2022-12-18T14:17:13;101384.38;;;2.79;80.86
64967;BME280;51710;38.732;-121.358;2022-12-18T14:19:51;101388.59;;;2.68;80.52
64967;BME280;51710;38.732;-121.358;2022-12-18T14:22:26;101380.19;;;2.47;80.23
64967;BME280;51710;38.732;-121.358;2022-12-18T14:27:47;101379.31;;;2.33;80.36
64967;BME280;51710;38.732;-121.358;2022-12-18T14:30:36;101383.25;;;2.40;81.06
64967;BME280;51710;38.732;-121.358;2022-12-18T14:33:05;101377.47;;;2.49;81.49
64967;BME280;51710;38.732;-121.358;2022-12-18T14:35:36;101379.00;;;2.53;81.04